Time;durP1;ratioP1;P1;durP2;ratioP2;P2;SDS_P1;SDS_P2;PMS_P1;PMS_P2;Temp;Humidity;BMP_temperature;BMP_pressure;BME280_temperature;BME280_humidity;BME280_pressure;Samples;Min_cycle;Max_cycle;Signal;HPM_P1;HPM_P2
2023/04/05 00:01:39;;;;;;;1999.90;999.90;;;-0.20;99.90;;;;;;5054706;28;20452;-74
2023/04/05 00:04:04;;;;;;;1999.90;999.90;;;-0.20;99.90;;;;;;5053959;28;20542;-74
2023/04/05 00:06:30;;;;;;;1999.90;999.90;;;-0.20;99.90;;;;;;5054655;28;20112;-74
2023/04/05 00:09:03;;;;;;;1999.90;999.90;;;-0.10;99.90;;;;;;5054676;28;20125;-74
2023/04/05 00:11:31;;;;;;;1999.90;999.90;;;-0.10;99.90;;;;;;5053500;28;20033;-74
2023/04/05 00:14:01;;;;;;;1999.90;999.90;;;-0.10;99.90;;;;;;5054096;28;20037;-74
2023/04/05 00:16:28;;;;;;;1999.90;999.90;;;-0.10;99.90;;;;;;5053090;28;20040;-74
2023/04/05 00:18:55;;;;;;;1999.90;999.90;;;-0.10;99.90;;;;;;5054332;28;20858;-74
2023/04/05 00:21:22;;;;;;;1999.90;999.90;;;-0.10;99.90;;;;;;5054055;28;20072;-74
2023/04/05 00:23:50;;;;;;;1999.90;999.90;;;0.00;99.90;;;;;;5052214;28;20140;-74
2023/04/05 00:26:18;;;;;;;1999.90;999.90;;;0.00;99.90;;;;;;5054207;28;20030;-74
2023/04/05 00:28:45;;;;;;;1999.90;999.90;;;0.00;99.90;;;;;;5054340;28;20038;-74
2023/04/05 00:31:11;;;;;;;1999.90;999.90;;;-0.10;99.90;;;;;;5053655;28;20330;-74
2023/04/05 00:33:36;;;;;;;1999.90;999.90;;;0.00;99.90;;;;;;5054157;28;20037;-74
2023/04/05 00:36:13;;;;;;;1999.90;999.90;;;0.00;99.90;;;;;;5052461;28;20034;-74
2023/04/05 00:38:40;;;;;;;1999.90;999.90;;;-0.10;99.90;;;;;;5052462;28;20435;-74
2023/04/05 00:41:05;;;;;;;1999.90;999.90;;;-0.20;99.90;;;;;;5053797;28;20124;-74
2023/04/05 00:43:31;;;;;;;1999.90;999.90;;;-0.20;99.90;;;;;;5054039;28;20037;-74
2023/04/05 00:45:57;;;;;;;1999.90;999.90;;;-0.20;99.90;;;;;;5052482;28;20033;-74
2023/04/05 00:48:23;;;;;;;1999.90;999.90;;;-0.30;99.90;;;;;;5052530;28;20041;-74
2023/04/05 00:50:51;;;;;;;1999.90;999.90;;;-0.30;99.90;;;;;;5054095;28;20037;-74
2023/04/05 00:53:18;;;;;;;1999.90;999.90;;;-0.30;99.90;;;;;;5053912;28;20037;-74
2023/04/05 00:55:46;;;;;;;1999.90;999.90;;;-0.40;99.90;;;;;;5056106;28;20061;-74
2023/04/05 00:58:12;;;;;;;1999.90;999.90;;;-0.40;99.90;;;;;;5056092;28;20402;-74
2023/04/05 01:00:38;;;;;;;1999.90;999.90;;;-0.40;99.90;;;;;;5057128;28;20033;-74
2023/04/05 01:03:06;;;;;;;1999.90;999.90;;;-0.40;99.90;;;;;;5055604;28;20037;-74
2023/04/05 01:05:54;;;;;;;1999.90;999.90;;;-0.40;99.90;;;;;;5057103;28;20029;-74
2023/04/05 01:08:22;;;;;;;1999.90;999.90;;;-0.50;99.90;;;;;;5057522;28;20111;-74
2023/04/05 01:10:53;;;;;;;1999.90;999.90;;;-0.50;99.90;;;;;;5056892;28;20048;-75
2023/04/05 01:13:19;;;;;;;1999.90;999.90;;;-0.70;99.90;;;;;;5056568;28;20041;-75
2023/04/05 01:15:45;;;;;;;1999.90;999.90;;;-0.80;99.90;;;;;;5055070;28;20033;-74
2023/04/05 01:18:12;;;;;;;1999.90;999.90;;;-0.70;99.90;;;;;;5057092;28;20034;-74
2023/04/05 01:20:44;;;;;;;1999.90;999.90;;;-0.70;99.90;;;;;;5056209;28;20068;-74
2023/04/05 01:23:36;;;;;;;1999.90;999.90;;;-0.70;99.90;;;;;;5057327;28;20060;-74
2023/04/05 01:26:26;;;;;;;1999.90;999.90;;;-0.70;99.90;;;;;;5056432;28;20176;-75
2023/04/05 01:29:02;;;;;;;1999.90;999.90;;;-0.70;99.90;;;;;;5056915;28;20112;-75
2023/04/05 01:32:01;;;;;;;1999.90;999.90;;;-0.70;99.90;;;;;;5054455;28;20069;-74
2023/04/05 01:34:55;;;;;;;1999.90;999.90;;;-0.70;99.90;;;;;;5054995;28;20034;-74
2023/04/05 01:37:26;;;;;;;1999.90;999.90;;;-0.70;99.90;;;;;;5055449;28;20053;-75
2023/04/05 01:39:52;;;;;;;1999.90;999.90;;;-0.70;99.90;;;;;;5056894;28;20891;-74
2023/04/05 01:42:26;;;;;;;1999.90;999.90;;;-0.70;99.90;;;;;;5051816;28;20096;-75
2023/04/05 01:44:52;;;;;;;1999.90;999.90;;;-0.70;99.90;;;;;;5061394;28;20088;-75
2023/04/05 01:47:19;;;;;;;1999.90;999.90;;;-0.70;99.90;;;;;;5056725;28;20041;-74
2023/04/05 01:49:45;;;;;;;1999.90;999.90;;;-0.70;99.90;;;;;;5056743;28;20048;-75
2023/04/05 01:52:10;;;;;;;1999.90;999.90;;;-0.80;99.90;;;;;;5058322;28;20108;-75
2023/04/05 01:54:36;;;;;;;1999.90;999.90;;;-0.90;99.90;;;;;;5056503;28;20151;-75
2023/04/05 01:57:02;;;;;;;1999.90;999.90;;;-1.00;99.90;;;;;;5056705;28;20040;-75
2023/04/05 01:59:27;;;;;;;1999.90;999.90;;;-1.00;99.90;;;;;;5054570;28;20029;-75
2023/04/05 02:01:53;;;;;;;1999.90;999.90;;;-1.00;99.90;;;;;;5056107;28;20038;-74
2023/04/05 02:04:19;;;;;;;1999.90;999.90;;;-0.90;99.90;;;;;;5056153;28;20476;-75
2023/04/05 02:06:44;;;;;;;1999.90;999.90;;;-0.90;99.90;;;;;;5055931;28;20450;-75
2023/04/05 02:09:10;;;;;;;1999.90;999.90;;;-1.00;99.90;;;;;;5056249;28;20423;-75
2023/04/05 02:11:35;;;;;;;1999.90;999.90;;;-1.00;99.90;;;;;;5054956;28;20038;-75
2023/04/05 02:14:01;;;;;;;1999.90;999.90;;;-1.00;99.90;;;;;;5056204;28;20605;-75
2023/04/05 02:16:26;;;;;;;1999.90;999.90;;;-1.00;99.90;;;;;;5056257;28;20037;-75
2023/04/05 02:18:56;;;;;;;1999.90;999.90;;;-1.10;99.90;;;;;;5055757;28;20038;-75
2023/04/05 02:21:22;;;;;;;1999.90;999.90;;;-1.10;99.90;;;;;;5054522;28;20525;-75
2023/04/05 02:23:48;;;;;;;1999.90;999.90;;;-1.30;99.90;;;;;;5054503;28;20044;-75
2023/04/05 02:26:14;;;;;;;1999.90;999.90;;;-1.30;99.90;;;;;;5056261;28;20029;-75
2023/04/05 02:28:39;;;;;;;1999.90;999.90;;;-1.30;99.90;;;;;;5055782;28;20041;-75
2023/04/05 02:31:12;;;;;;;1999.90;999.90;;;-1.30;99.90;;;;;;5055693;28;20064;-74
2023/04/05 02:33:38;;;;;;;1999.90;999.90;;;-1.30;99.90;;;;;;5056003;28;20037;-75
2023/04/05 02:36:05;;;;;;;1999.90;999.90;;;-1.30;99.90;;;;;;5055398;28;20030;-75
2023/04/05 02:38:32;;;;;;;1999.90;999.90;;;-1.30;99.90;;;;;;5055626;28;20034;-75
2023/04/05 02:40:57;;;;;;;1999.90;999.90;;;-1.40;99.90;;;;;;5055368;28;20503;-75
2023/04/05 02:43:23;;;;;;;1999.90;999.90;;;-1.50;99.90;;;;;;5055590;28;20076;-74
2023/04/05 02:45:48;;;;;;;1999.90;999.90;;;-1.50;99.90;;;;;;5054022;28;20025;-74
2023/04/05 02:48:14;;;;;;;1999.90;999.90;;;-1.60;99.90;;;;;;5055266;28;20054;-74
2023/04/05 02:50:39;;;;;;;1999.90;999.90;;;-1.60;99.90;;;;;;5055686;28;20037;-74
2023/04/05 02:53:05;;;;;;;1999.90;999.90;;;-1.80;99.90;;;;;;5055449;28;20036;-75
2023/04/05 02:55:33;;;;;;;1999.90;999.90;;;-1.80;99.90;;;;;;5055360;28;20029;-74
2023/04/05 02:58:02;;;;;;;1999.90;999.90;;;-1.90;99.90;;;;;;5055235;28;20091;-74
2023/04/05 03:00:27;;;;;;;1999.90;999.90;;;-2.00;99.90;;;;;;5045901;28;20034;-74
2023/04/05 03:02:54;;;;;;;1999.90;999.90;;;-1.90;99.90;;;;;;5047332;28;20088;-75
2023/04/05 03:05:21;;;;;;;1999.90;999.90;;;-2.00;99.90;;;;;;5055281;28;20026;-74
2023/04/05 03:07:49;;;;;;;1999.90;999.90;;;-2.00;99.90;;;;;;5055127;28;20037;-74
2023/04/05 03:10:17;;;;;;;1999.90;999.90;;;-2.00;99.90;;;;;;5055154;28;20041;-74
2023/04/05 03:12:46;;;;;;;1999.90;999.90;;;-2.00;99.90;;;;;;5054963;28;20055;-74
2023/04/05 03:15:11;;;;;;;1999.90;999.90;;;-2.10;99.90;;;;;;5054594;28;20034;-74
2023/04/05 03:17:37;;;;;;;1999.90;999.90;;;-2.00;99.90;;;;;;5053716;28;20128;-74
2023/04/05 03:20:07;;;;;;;1999.90;999.90;;;-2.00;99.90;;;;;;5055283;28;20042;-74
2023/04/05 03:22:33;;;;;;;1999.90;999.90;;;-1.90;99.90;;;;;;5053292;28;20030;-75
2023/04/05 03:24:58;;;;;;;1999.90;999.90;;;-2.10;99.90;;;;;;5055028;28;20041;-75
2023/04/05 03:27:25;;;;;;;1999.90;999.90;;;-2.20;99.90;;;;;;5054744;28;20037;-74
2023/04/05 03:29:50;;;;;;;1999.90;999.90;;;-2.20;99.90;;;;;;5053585;28;20515;-75
2023/04/05 03:32:16;;;;;;;1999.90;999.90;;;-2.10;99.90;;;;;;5070075;22;20129;-74
2023/04/05 03:34:42;;;;;;;1999.90;999.90;;;-2.10;99.90;;;;;;5034443;28;20478;-74
2023/04/05 03:37:08;;;;;;;1999.90;999.90;;;-2.20;99.90;;;;;;5033732;28;20542;-74
2023/04/05 03:39:33;;;;;;;1999.90;999.90;;;-2.20;99.90;;;;;;5038463;28;20045;-75
2023/04/05 03:42:00;;;;;;;1999.90;999.90;;;-2.10;99.90;;;;;;5035281;28;20026;-73
2023/04/05 03:44:25;;;;;;;1999.90;999.90;;;-2.00;99.90;;;;;;5033315;28;20033;-73
2023/04/05 03:46:51;;;;;;;1999.90;999.90;;;-2.00;99.90;;;;;;5034922;28;20033;-73
2023/04/05 03:49:18;;;;;;;1999.90;999.90;;;-1.90;99.90;;;;;;5034982;28;20093;-73
2023/04/05 03:51:45;;;;;;;1999.90;999.90;;;-1.80;99.90;;;;;;5034356;28;20109;-73
2023/04/05 03:54:10;;;;;;;1999.90;999.90;;;-1.90;99.90;;;;;;5033124;28;20094;-73
2023/04/05 03:56:36;;;;;;;1999.90;999.90;;;-1.80;99.90;;;;;;5034921;28;20093;-73
2023/04/05 03:59:02;;;;;;;1999.90;999.90;;;-1.90;99.90;;;;;;5034709;28;20128;-73
2023/04/05 04:01:28;;;;;;;1999.90;999.90;;;-1.90;99.90;;;;;;5034328;28;20026;-73
2023/04/05 04:03:54;;;;;;;1999.90;999.90;;;-1.80;99.90;;;;;;5034351;28;20522;-74
2023/04/05 04:06:20;;;;;;;1999.90;999.90;;;-1.80;99.90;;;;;;5034975;28;20042;-73
2023/04/05 04:08:45;;;;;;;1999.90;999.90;;;-1.80;99.90;;;;;;5034736;28;20049;-73
2023/04/05 04:11:11;;;;;;;1999.90;999.90;;;-1.80;99.90;;;;;;5029353;28;20499;-73
2023/04/05 04:13:36;;;;;;;1999.90;999.90;;;-1.90;99.90;;;;;;5016239;28;20042;-74
2023/04/05 04:16:02;;;;;;;1999.90;999.90;;;-1.90;99.90;;;;;;5034517;28;20498;-73
2023/04/05 04:18:28;;;;;;;1999.90;999.90;;;-1.90;99.90;;;;;;5034630;28;20459;-73
2023/04/05 04:20:55;;;;;;;1999.90;999.90;;;-1.80;99.90;;;;;;5033925;28;20073;-73
2023/04/05 04:23:21;;;;;;;1999.90;999.90;;;-1.70;99.90;;;;;;5033947;28;20866;-73
2023/04/05 04:25:53;;;;;;;1999.90;999.90;;;-1.70;99.90;;;;;;5034091;28;20034;-73
2023/04/05 04:28:20;;;;;;;1999.90;999.90;;;-1.80;99.90;;;;;;5032410;28;20062;-73
2023/04/05 04:30:45;;;;;;;1999.90;999.90;;;-1.80;99.90;;;;;;5034090;28;20796;-73
2023/04/05 04:33:11;;;;;;;1999.90;999.90;;;-1.80;99.90;;;;;;5032177;28;20046;-73
2023/04/05 04:35:41;;;;;;;1999.90;999.90;;;-1.80;99.90;;;;;;5033728;28;20491;-73
2023/04/05 04:38:07;;;;;;;1999.90;999.90;;;-1.90;99.90;;;;;;5033950;28;20034;-73
2023/04/05 04:40:37;;;;;;;1999.90;999.90;;;-1.90;99.90;;;;;;5034171;28;20040;-74
2023/04/05 04:43:15;;;;;;;1999.90;999.90;;;-2.00;99.90;;;;;;5033132;28;20113;-74
2023/04/05 04:45:48;;;;;;;1999.90;999.90;;;-2.00;99.90;;;;;;5033630;28;20068;-73
2023/04/05 04:48:15;;;;;;;1999.90;999.90;;;-2.00;99.90;;;;;;5034009;28;20038;-73
2023/04/05 04:50:44;;;;;;;1999.90;999.90;;;-2.00;99.90;;;;;;5033894;28;20033;-73
2023/04/05 04:53:12;;;;;;;1999.90;999.90;;;-1.90;99.90;;;;;;5032785;28;20084;-73
2023/04/05 04:55:41;;;;;;;1999.90;999.90;;;-1.80;99.90;;;;;;5032229;28;20033;-73
2023/04/05 04:58:11;;;;;;;1999.90;999.90;;;-1.90;99.90;;;;;;5032331;28;20038;-73
2023/04/05 05:00:43;;;;;;;1999.90;999.90;;;-1.90;99.90;;;;;;5034023;28;20109;-73
2023/04/05 05:03:12;;;;;;;1999.90;999.90;;;-1.90;99.90;;;;;;5032939;28;20030;-73
2023/04/05 05:05:45;;;;;;;1999.90;999.90;;;-1.90;99.90;;;;;;5033761;28;20036;-73
2023/04/05 05:08:11;;;;;;;1999.90;999.90;;;-1.80;99.90;;;;;;5033460;28;20030;-73
2023/04/05 05:10:37;;;;;;;1999.90;999.90;;;-1.70;99.90;;;;;;5032325;28;20088;-73
2023/04/05 05:13:03;;;;;;;1999.90;999.90;;;-1.80;99.90;;;;;;5033332;28;20033;-73
2023/04/05 05:15:28;;;;;;;1999.90;999.90;;;-1.60;99.90;;;;;;5032010;28;20061;-76
2023/04/05 05:17:54;;;;;;;1999.90;999.90;;;-1.50;99.90;;;;;;5034134;28;20624;-76
2023/04/05 05:20:20;;;;;;;1999.90;999.90;;;-1.50;99.90;;;;;;5033992;28;20041;-74
2023/04/05 05:22:45;;;;;;;1999.90;999.90;;;-1.60;99.90;;;;;;5033071;28;20061;-74
2023/04/05 05:25:11;;;;;;;1999.90;999.90;;;-1.60;99.90;;;;;;5033783;28;20121;-77
2023/04/05 05:27:37;;;;;;;1999.90;999.90;;;-1.70;99.90;;;;;;5032354;28;20045;-72
2023/04/05 05:30:04;;;;;;;1999.90;999.90;;;-1.70;99.90;;;;;;5031599;28;20475;-73
2023/04/05 05:32:29;;;;;;;1999.90;999.90;;;-1.70;99.90;;;;;;5032952;28;20092;-72
2023/04/05 05:34:55;;;;;;;1999.90;999.90;;;-1.70;99.90;;;;;;5033093;28;20034;-73
2023/04/05 05:37:32;;;;;;;1999.90;999.90;;;-1.60;99.90;;;;;;5032122;28;20081;-74
2023/04/05 05:39:58;;;;;;;1999.90;999.90;;;-1.70;99.90;;;;;;5025356;28;20041;-74
2023/04/05 05:42:23;;;;;;;1999.90;999.90;;;-1.70;99.90;;;;;;5031285;28;20060;-74
2023/04/05 05:44:49;;;;;;;1999.90;999.90;;;-1.60;99.90;;;;;;5034485;28;20519;-74
2023/04/05 05:47:14;;;;;;;1999.90;999.90;;;-1.50;99.90;;;;;;5035642;28;20491;-73
2023/04/05 05:49:40;;;;;;;1999.90;999.90;;;-1.50;99.90;;;;;;5041037;28;20033;-73
2023/04/05 05:52:06;;;;;;;1999.90;999.90;;;-1.40;99.90;;;;;;5034060;28;20049;-75
2023/04/05 05:54:31;;;;;;;1999.90;999.90;;;-1.30;99.90;;;;;;5035734;28;20049;-73
2023/04/05 05:56:57;;;;;;;1999.90;999.90;;;-1.30;99.90;;;;;;5035249;28;20045;-73
2023/04/05 05:59:23;;;;;;;1999.90;999.90;;;-1.30;99.90;;;;;;5034259;28;20042;-75
2023/04/05 06:01:50;;;;;;;1999.90;999.90;;;-1.20;99.90;;;;;;5031617;28;20495;-73
2023/04/05 06:04:15;;;;;;;1999.90;999.90;;;-1.30;99.90;;;;;;5035676;28;20149;-77
2023/04/05 06:06:46;;;;;;;1999.90;999.90;;;-1.30;99.90;;;;;;5034439;28;20615;-73
2023/04/05 06:09:12;;;;;;;1999.90;999.90;;;-1.30;99.90;;;;;;5033436;28;20095;-73
2023/04/05 06:11:38;;;;;;;1999.90;999.90;;;-1.10;99.90;;;;;;5035601;28;20114;-73
2023/04/05 06:14:03;;;;;;;1999.90;999.90;;;-1.00;99.90;;;;;;5033698;28;20060;-73
2023/04/05 06:16:29;;;;;;;1999.90;999.90;;;-1.10;99.90;;;;;;5031611;28;20507;-74
2023/04/05 06:18:55;;;;;;;1999.90;999.90;;;-1.10;99.90;;;;;;5035929;28;20021;-73
2023/04/05 06:21:21;;;;;;;1999.90;999.90;;;-1.00;99.90;;;;;;5034617;28;20030;-74
2023/04/05 06:23:47;;;;;;;1999.90;999.90;;;-0.90;99.90;;;;;;5035377;28;20033;-73
2023/04/05 06:26:22;;;;;;;1999.90;999.90;;;-0.80;99.90;;;;;;5034259;28;20125;-74
2023/04/05 06:28:48;;;;;;;1999.90;999.90;;;-0.80;99.90;;;;;;5035958;28;20037;-73
2023/04/05 06:31:15;;;;;;;1999.90;999.90;;;-0.70;99.90;;;;;;5033047;28;20520;-74
2023/04/05 06:33:41;;;;;;;1999.90;999.90;;;-0.60;99.90;;;;;;5033935;28;20042;-73
2023/04/05 06:36:07;;;;;;;1999.90;999.90;;;-0.50;99.90;;;;;;5035832;28;20113;-74
2023/04/05 06:38:36;;;;;;;1999.90;999.90;;;-0.50;99.90;;;;;;5034319;28;20034;-74
2023/04/05 06:41:04;;;;;;;1999.90;999.90;;;-0.40;99.90;;;;;;5034306;28;20155;-75
2023/04/05 06:43:30;;;;;;;1999.90;999.90;;;-0.30;99.90;;;;;;5033610;28;20037;-74
2023/04/05 06:45:55;;;;;;;1999.90;999.90;;;-0.20;99.90;;;;;;5035216;28;20033;-74
2023/04/05 06:48:21;;;;;;;1999.90;999.90;;;-0.10;99.90;;;;;;5035122;28;20042;-73
2023/04/05 06:50:55;;;;;;;1999.90;999.90;;;0.00;99.90;;;;;;5035669;28;20034;-73
2023/04/05 06:53:21;;;;;;;1999.90;999.90;;;0.00;99.90;;;;;;5034869;28;20041;-73
2023/04/05 06:55:50;;;;;;;1999.90;999.90;;;0.10;99.90;;;;;;5033765;28;20052;-73
2023/04/05 06:58:15;;;;;;;1999.90;999.90;;;0.20;99.90;;;;;;5033456;28;20448;-73
2023/04/05 07:00:41;;;;;;;1999.90;999.90;;;0.30;99.90;;;;;;5033010;28;20046;-73
2023/04/05 07:03:07;;;;;;;1999.90;999.90;;;0.40;99.90;;;;;;5033546;28;20406;-73
2023/04/05 07:05:32;;;;;;;1999.90;999.90;;;0.50;99.90;;;;;;5034742;28;20389;-73
2023/04/05 07:07:58;;;;;;;1999.90;999.90;;;0.60;99.90;;;;;;5034513;28;20504;-74
2023/04/05 07:10:23;;;;;;;1999.90;999.90;;;0.70;99.90;;;;;;5035374;28;20050;-73
2023/04/05 07:12:49;;;;;;;1999.90;999.90;;;0.80;99.90;;;;;;5032980;28;20029;-73
2023/04/05 07:15:15;;;;;;;1999.90;999.90;;;0.80;99.90;;;;;;5031698;28;20121;-74
2023/04/05 07:17:41;;;;;;;1999.90;999.90;;;0.90;99.90;;;;;;5034533;28;20117;-73
2023/04/05 07:20:07;;;;;;;1999.90;999.90;;;1.00;99.90;;;;;;5035211;28;20038;-73
2023/04/05 07:22:34;;;;;;;1999.90;999.90;;;1.10;99.90;;;;;;5030605;28;20065;-73
2023/04/05 07:24:59;;;;;;;1999.90;999.90;;;1.20;99.90;;;;;;5040909;28;20507;-73
2023/04/05 07:27:25;;;;;;;1999.90;999.90;;;1.40;99.90;;;;;;5035378;28;20044;-73
2023/04/05 07:29:50;;;;;;;1999.90;999.90;;;1.50;99.90;;;;;;5033576;28;20076;-73
2023/04/05 07:32:16;;;;;;;1999.90;999.90;;;1.70;99.90;;;;;;5033050;28;20038;-73
2023/04/05 07:34:41;;;;;;;1999.90;999.90;;;1.80;99.90;;;;;;5034231;28;20092;-74
2023/04/05 07:37:07;;;;;;;1999.90;999.90;;;1.90;99.90;;;;;;5033608;28;20487;-73
2023/04/05 07:39:33;;;;;;;1999.90;999.90;;;2.10;99.90;;;;;;5035020;28;20033;-73
2023/04/05 07:41:58;;;;;;;1999.90;999.90;;;2.20;99.90;;;;;;5034534;28;20037;-73
2023/04/05 07:44:24;;;;;;;1999.90;999.90;;;2.30;99.90;;;;;;5032046;28;20124;-74
2023/04/05 07:46:49;;;;;;;1999.90;999.90;;;2.40;99.90;;;;;;5034306;28;20125;-73
2023/04/05 07:49:15;;;;;;;1999.90;999.90;;;2.50;99.90;;;;;;5034684;28;20088;-73
2023/04/05 07:51:42;;;;;;;1999.90;999.90;;;2.60;99.90;;;;;;5034571;28;20037;-73
2023/04/05 07:54:08;;;;;;;1999.90;999.90;;;2.80;99.90;;;;;;5034368;28;20061;-73
2023/04/05 07:56:35;;;;;;;1999.90;999.90;;;3.00;99.90;;;;;;5034328;28;20113;-74
2023/04/05 07:59:00;;;;;;;1999.90;999.90;;;3.10;99.90;;;;;;5034136;28;20045;-74
2023/04/05 08:01:26;;;;;;;1999.90;999.90;;;3.20;99.90;;;;;;5026114;28;20030;-73
2023/04/05 08:03:58;;;;;;;1999.90;999.90;;;3.40;99.90;;;;;;5026155;28;20073;-73
2023/04/05 08:06:23;;;;;;;1999.90;999.90;;;3.50;99.90;;;;;;5034044;28;20034;-73
2023/04/05 08:08:49;;;;;;;1999.90;999.90;;;3.60;99.90;;;;;;5034179;28;20046;-74
2023/04/05 08:11:15;;;;;;;1999.90;999.90;;;3.80;99.90;;;;;;5033330;28;20487;-73
2023/04/05 08:13:41;;;;;;;1999.90;999.90;;;3.90;99.90;;;;;;5013916;28;20042;-74
2023/04/05 08:16:08;;;;;;;1999.90;999.90;;;4.00;99.40;;;;;;5021520;28;20017;-74
2023/04/05 08:18:33;;;;;;;1999.90;999.90;;;4.10;99.90;;;;;;5014509;28;20042;-73
2023/04/05 08:20:59;;;;;;;1999.90;999.90;;;4.20;99.90;;;;;;5014995;28;20061;-73
2023/04/05 08:23:25;;;;;;;1999.90;999.90;;;4.40;99.20;;;;;;5014232;28;20089;-73
2023/04/05 08:25:52;;;;;;;1999.90;999.90;;;4.50;98.90;;;;;;5014102;28;20061;-73
2023/04/05 08:28:17;;;;;;;1999.90;999.90;;;4.60;98.70;;;;;;5021253;28;20506;-74
2023/04/05 08:30:44;;;;;;;1999.90;999.90;;;4.70;97.90;;;;;;5034350;28;20172;-74
2023/04/05 08:33:10;;;;;;;1999.90;999.90;;;4.80;97.50;;;;;;5032235;28;20037;-73
2023/04/05 08:35:36;;;;;;;1999.90;999.90;;;4.90;97.20;;;;;;5032158;28;20034;-73
2023/04/05 08:38:02;;;;;;;1999.90;999.90;;;5.00;97.30;;;;;;5032804;28;20034;-75
2023/04/05 08:40:42;;;;;;;1999.90;999.90;;;5.10;96.80;;;;;;5033927;28;20066;-74
2023/04/05 08:43:27;;;;;;;1999.90;999.90;;;5.10;96.90;;;;;;5032273;28;20116;-74
2023/04/05 08:45:54;;;;;;;1999.90;999.90;;;5.20;96.10;;;;;;5023928;28;20064;-74
2023/04/05 08:48:20;;;;;;;1999.90;999.90;;;5.40;96.80;;;;;;5032366;28;20450;-74
2023/04/05 08:50:50;;;;;;;1999.90;999.90;;;5.50;96.00;;;;;;5031122;28;20049;-75
2023/04/05 08:53:16;;;;;;;1999.90;999.90;;;5.50;95.30;;;;;;5031661;28;20474;-73
2023/04/05 08:55:42;;;;;;;1999.90;999.90;;;5.50;95.30;;;;;;5033108;28;20125;-74
2023/04/05 08:58:13;;;;;;;1999.90;999.90;;;5.60;95.50;;;;;;5033662;28;20030;-74
2023/04/05 09:00:40;;;;;;;1999.90;999.90;;;5.80;95.40;;;;;;5031796;28;20030;-74
2023/04/05 09:03:10;;;;;;;1999.90;999.90;;;6.10;94.40;;;;;;5032204;28;20048;-74
2023/04/05 09:05:38;;;;;;;1999.90;999.90;;;6.20;94.00;;;;;;5032108;28;20038;-74
2023/04/05 09:08:04;;;;;;;1999.90;999.90;;;6.20;94.20;;;;;;5032871;28;20052;-75
2023/04/05 09:10:30;;;;;;;1999.90;999.90;;;6.30;94.30;;;;;;5033058;28;20057;-77
2023/04/05 09:12:57;;;;;;;1999.90;999.90;;;6.40;92.80;;;;;;5033054;28;20117;-75
2023/04/05 09:15:25;;;;;;;1999.90;999.90;;;6.50;92.80;;;;;;5032664;28;20089;-75
2023/04/05 09:17:51;;;;;;;1999.90;999.90;;;6.40;92.10;;;;;;5036215;28;20523;-75
2023/04/05 09:20:17;;;;;;;1999.90;999.90;;;6.50;90.90;;;;;;5025780;28;20045;-74
2023/04/05 09:22:44;;;;;;;1999.90;999.90;;;6.60;90.10;;;;;;5030992;28;20038;-74
2023/04/05 09:25:10;;;;;;;1999.90;999.90;;;6.80;87.40;;;;;;5016575;28;20034;-74
2023/04/05 09:27:53;;;;;;;1999.90;999.90;;;6.90;83.50;;;;;;5016556;28;20077;-75
2023/04/05 09:30:22;;;;;;;1999.90;999.90;;;6.90;85.70;;;;;;5015475;28;20046;-74
2023/04/05 09:32:54;;;;;;;1999.90;999.90;;;7.10;85.50;;;;;;5039229;22;20119;-78
2023/04/05 09:35:31;;;;;;;1999.90;999.90;;;7.10;85.90;;;;;;5036383;28;20483;-79
2023/04/05 09:38:00;;;;;;;1999.90;999.90;;;7.20;85.20;;;;;;5025734;28;20065;-79
2023/04/05 09:40:46;;;;;;;1999.90;999.90;;;7.30;81.90;;;;;;5019759;28;20886;-79
2023/04/05 09:43:33;;;;;;;1999.90;999.90;;;7.40;81.90;;;;;;5032654;28;20028;-79
2023/04/05 09:45:59;;;;;;;1999.90;999.90;;;7.40;83.10;;;;;;5037657;28;20445;-80
2023/04/05 09:48:48;;;;;;;1999.90;999.90;;;7.70;81.40;;;;;;5039483;28;20030;-80
2023/04/05 09:51:15;;;;;;;1999.90;999.90;;;7.90;80.00;;;;;;5037414;28;20026;-80
2023/04/05 09:54:19;;;;;;;1999.90;999.90;;;8.00;79.70;;;;;;5037140;28;20041;-80
2023/04/05 09:56:56;;;;;;;1999.90;999.90;;;8.10;79.70;;;;;;5037848;28;20036;-80
2023/04/05 09:59:22;;;;;;;1999.90;999.90;;;8.30;80.00;;;;;;5037456;28;20034;-80
2023/04/05 10:01:53;;;;;;;1999.90;999.90;;;8.50;79.20;;;;;;5038201;28;20149;-78
2023/04/05 10:04:19;;;;;;;1999.90;999.90;;;8.50;74.20;;;;;;5036737;28;20073;-80
2023/04/05 10:06:44;;;;;;;1999.90;999.90;;;8.50;74.70;;;;;;5037597;28;20034;-78
2023/04/05 10:09:13;;;;;;;1999.90;999.90;;;8.60;75.80;;;;;;5037418;28;20120;-79
2023/04/05 10:11:38;;;;;;;1999.90;999.90;;;8.30;76.70;;;;;;5037224;28;20037;-78
2023/04/05 10:14:08;;;;;;;1999.90;999.90;;;8.10;77.80;;;;;;5038779;28;20038;-80
2023/04/05 10:16:52;;;;;;;1999.90;999.90;;;7.90;77.10;;;;;;5039958;28;20057;-79
2023/04/05 10:19:36;;;;;;;1999.90;999.90;;;7.90;75.20;;;;;;5036656;28;20061;-79
2023/04/05 10:22:02;;;;;;;1999.90;999.90;;;8.00;78.90;;;;;;5036467;28;20120;-79
2023/04/05 10:24:50;;;;;;;1999.90;999.90;;;8.10;77.80;;;;;;5036849;28;20042;-79
2023/04/05 10:27:47;;;;;;;1999.90;999.90;;;8.40;78.90;;;;;;5036304;28;20163;-78
2023/04/05 10:30:15;;;;;;;1999.90;999.90;;;8.70;75.90;;;;;;5036427;28;20030;-79
2023/04/05 10:33:29;;;;;;;1999.90;999.90;;;8.80;77.10;;;;;;5034921;28;20061;-80
2023/04/05 10:36:15;;;;;;;1999.90;999.90;;;8.90;77.40;;;;;;5031008;28;20177;-79
2023/04/05 10:38:46;;;;;;;1999.90;999.90;;;9.20;77.80;;;;;;5036614;28;20085;-79
2023/04/05 10:41:15;;;;;;;1999.90;999.90;;;9.10;74.10;;;;;;5037692;28;20073;-82
2023/04/05 10:43:42;;;;;;;1999.90;999.90;;;9.10;76.00;;;;;;5035642;28;20101;-86
2023/04/05 10:46:09;;;;;;;1999.90;999.90;;;9.30;73.90;;;;;;5036963;28;20048;-81
2023/04/05 10:48:51;;;;;;;1999.90;999.90;;;9.40;76.30;;;;;;5036992;28;20038;-81
2023/04/05 10:51:17;;;;;;;1999.90;999.90;;;9.70;73.20;;;;;;5035286;28;20177;-80
2023/04/05 10:53:44;;;;;;;1999.90;999.90;;;9.70;72.50;;;;;;5040578;28;20042;-81
2023/04/05 10:56:11;;;;;;;1999.90;999.90;;;9.90;70.80;;;;;;5056374;28;20112;-80
2023/04/05 10:58:39;;;;;;;1999.90;999.90;;;10.00;74.20;;;;;;5056015;28;20048;-80
2023/04/05 11:01:06;;;;;;;1999.90;999.90;;;10.00;71.30;;;;;;5055629;28;20766;-80
2023/04/05 11:03:48;;;;;;;1999.90;999.90;;;10.30;69.90;;;;;;5041665;28;20034;-81
2023/04/05 11:06:20;;;;;;;1999.90;999.90;;;10.20;73.80;;;;;;5036848;28;20038;-80
2023/04/05 11:08:47;;;;;;;1999.90;999.90;;;9.70;70.00;;;;;;5036004;28;20526;-82
2023/04/05 11:11:17;;;;;;;1999.90;999.90;;;9.50;70.80;;;;;;5035676;28;20439;-82
2023/04/05 11:13:59;;;;;;;1999.90;999.90;;;9.80;73.90;;;;;;5035252;28;20038;-83
2023/04/05 11:16:39;;;;;;;1999.90;999.90;;;10.00;72.20;;;;;;5037238;28;20046;-82
2023/04/05 11:19:05;;;;;;;1999.90;999.90;;;10.30;71.50;;;;;;5035475;28;20038;-81
2023/04/05 11:21:30;;;;;;;1999.90;999.90;;;10.50;73.60;;;;;;5035372;28;20029;-81
2023/04/05 11:24:05;;;;;;;1999.90;999.90;;;11.00;72.40;;;;;;5035231;28;20038;-84
2023/04/05 11:26:33;;;;;;;1999.90;999.90;;;11.10;70.70;;;;;;5035636;28;20120;-83
2023/04/05 11:28:58;;;;;;;1999.90;999.90;;;10.60;71.60;;;;;;5036279;28;20145;-80
2023/04/05 11:31:25;;;;;;;1999.90;999.90;;;10.50;69.20;;;;;;5035608;28;20034;-77
2023/04/05 11:34:10;;;;;;;1999.90;999.90;;;10.70;68.50;;;;;;5033555;28;20042;-77
2023/04/05 11:36:44;;;;;;;1999.90;999.90;;;10.90;73.20;;;;;;5018370;28;20927;-80
2023/04/05 11:39:28;;;;;;;1999.90;999.90;;;10.70;72.60;;;;;;5034246;28;20038;-80
2023/04/05 11:41:55;;;;;;;1999.90;999.90;;;10.60;71.30;;;;;;5036545;28;20084;-80
2023/04/05 11:44:23;;;;;;;1999.90;999.90;;;10.60;68.80;;;;;;5036500;28;20932;-83
2023/04/05 11:46:49;;;;;;;1999.90;999.90;;;10.20;70.50;;;;;;5036154;28;20042;-77
2023/04/05 11:49:15;;;;;;;1999.90;999.90;;;9.90;69.80;;;;;;5036637;28;20034;-79
2023/04/05 11:51:42;;;;;;;1999.90;999.90;;;9.60;70.30;;;;;;5035707;28;20038;-80
2023/04/05 11:54:10;;;;;;;1999.90;999.90;;;9.50;72.20;;;;;;5034847;28;20037;-79
2023/04/05 11:56:36;;;;;;;1999.90;999.90;;;9.30;71.20;;;;;;5035814;28;20037;-79
2023/04/05 11:59:02;;;;;;;1999.90;999.90;;;9.30;72.20;;;;;;5034892;28;20534;-78
2023/04/05 12:01:28;;;;;;;1999.90;999.90;;;9.60;70.00;;;;;;5036258;28;20029;-84
2023/04/05 12:03:54;;;;;;;1999.90;999.90;;;9.90;70.20;;;;;;5035293;28;20034;-78
2023/04/05 12:06:24;;;;;;;1999.90;999.90;;;10.10;71.60;;;;;;5035785;28;20083;-79
2023/04/05 12:08:54;;;;;;;1999.90;999.90;;;10.50;71.20;;;;;;5037223;28;20049;-78
2023/04/05 12:11:30;;;;;;;1999.90;999.90;;;10.90;71.60;;;;;;5035619;28;20034;-79